sensor_id;sensor_type;location;lat;lon;timestamp;P1;durP1;ratioP1;P2;durP2;ratioP2
33696;SDS011;20031;43.416;23.232;2022-10-26T00:01:06;26.95;;;6.82;;
33696;SDS011;20031;43.416;23.232;2022-10-26T00:03:32;17.67;;;6.07;;
33696;SDS011;20031;43.416;23.232;2022-10-26T00:06:18;17.15;;;6.20;;
33696;SDS011;20031;43.416;23.232;2022-10-26T00:08:45;18.95;;;6.13;;
33696;SDS011;20031;43.416;23.232;2022-10-26T00:11:11;23.50;;;5.95;;
33696;SDS011;20031;43.416;23.232;2022-10-26T00:13:37;17.50;;;6.25;;
33696;SDS011;20031;43.416;23.232;2022-10-26T00:16:10;19.15;;;6.10;;
33696;SDS011;20031;43.416;23.232;2022-10-26T00:18:40;21.73;;;6.25;;
33696;SDS011;20031;43.416;23.232;2022-10-26T00:21:06;16.52;;;5.60;;
33696;SDS011;20031;43.416;23.232;2022-10-26T00:23:33;23.27;;;6.40;;
33696;SDS011;20031;43.416;23.232;2022-10-26T00:25:59;21.38;;;6.53;;
33696;SDS011;20031;43.416;23.232;2022-10-26T00:28:24;21.60;;;5.95;;
33696;SDS011;20031;43.416;23.232;2022-10-26T00:31:17;24.98;;;6.28;;
33696;SDS011;20031;43.416;23.232;2022-10-26T00:33:56;21.42;;;6.03;;
33696;SDS011;20031;43.416;23.232;2022-10-26T00:36:22;23.10;;;6.18;;
33696;SDS011;20031;43.416;23.232;2022-10-26T00:38:49;21.70;;;6.10;;
33696;SDS011;20031;43.416;23.232;2022-10-26T00:41:25;22.27;;;5.65;;
33696;SDS011;20031;43.416;23.232;2022-10-26T00:43:53;14.85;;;5.90;;
33696;SDS011;20031;43.416;23.232;2022-10-26T00:48:52;21.30;;;6.05;;
33696;SDS011;20031;43.416;23.232;2022-10-26T00:51:25;13.93;;;5.38;;
33696;SDS011;20031;43.416;23.232;2022-10-26T00:54:03;21.17;;;5.45;;
33696;SDS011;20031;43.416;23.232;2022-10-26T00:56:34;17.60;;;5.90;;
33696;SDS011;20031;43.416;23.232;2022-10-26T00:59:01;16.75;;;4.85;;
33696;SDS011;20031;43.416;23.232;2022-10-26T01:01:30;18.45;;;5.32;;
33696;SDS011;20031;43.416;23.232;2022-10-26T01:03:59;14.98;;;5.90;;
33696;SDS011;20031;43.416;23.232;2022-10-26T01:06:26;16.05;;;5.90;;
33696;SDS011;20031;43.416;23.232;2022-10-26T01:08:54;17.73;;;6.22;;
33696;SDS011;20031;43.416;23.232;2022-10-26T01:11:19;19.95;;;5.63;;
33696;SDS011;20031;43.416;23.232;2022-10-26T01:13:45;18.63;;;5.63;;
33696;SDS011;20031;43.416;23.232;2022-10-26T01:16:17;17.73;;;5.70;;
33696;SDS011;20031;43.416;23.232;2022-10-26T01:32:17;19.42;;;5.07;;
33696;SDS011;20031;43.416;23.232;2022-10-26T01:35:02;18.85;;;5.43;;
33696;SDS011;20031;43.416;23.232;2022-10-26T01:37:36;22.45;;;5.88;;
33696;SDS011;20031;43.416;23.232;2022-10-26T01:40:09;21.98;;;5.70;;
33696;SDS011;20031;43.416;23.232;2022-10-26T01:42:55;20.15;;;5.50;;
33696;SDS011;20031;43.416;23.232;2022-10-26T01:45:23;26.05;;;5.75;;
33696;SDS011;20031;43.416;23.232;2022-10-26T01:47:51;16.63;;;5.75;;
33696;SDS011;20031;43.416;23.232;2022-10-26T01:50:19;15.68;;;5.78;;
33696;SDS011;20031;43.416;23.232;2022-10-26T01:52:48;13.23;;;5.45;;
33696;SDS011;20031;43.416;23.232;2022-10-26T01:58:00;17.35;;;5.53;;
33696;SDS011;20031;43.416;23.232;2022-10-26T02:00:52;25.05;;;6.00;;
33696;SDS011;20031;43.416;23.232;2022-10-26T02:04:10;21.55;;;6.20;;
33696;SDS011;20031;43.416;23.232;2022-10-26T02:09:27;21.70;;;5.50;;
33696;SDS011;20031;43.416;23.232;2022-10-26T02:12:59;17.27;;;5.53;;
33696;SDS011;20031;43.416;23.232;2022-10-26T02:15:18;18.55;;;5.65;;
33696;SDS011;20031;43.416;23.232;2022-10-26T02:17:57;21.27;;;5.75;;
33696;SDS011;20031;43.416;23.232;2022-10-26T02:20:29;16.88;;;5.13;;
33696;SDS011;20031;43.416;23.232;2022-10-26T02:22:59;18.25;;;5.18;;
33696;SDS011;20031;43.416;23.232;2022-10-26T02:25:29;16.15;;;5.13;;
33696;SDS011;20031;43.416;23.232;2022-10-26T02:27:59;16.90;;;4.93;;
33696;SDS011;20031;43.416;23.232;2022-10-26T02:30:29;25.38;;;5.63;;
33696;SDS011;20031;43.416;23.232;2022-10-26T02:32:57;19.77;;;5.40;;
33696;SDS011;20031;43.416;23.232;2022-10-26T02:35:28;20.80;;;5.53;;
33696;SDS011;20031;43.416;23.232;2022-10-26T02:37:56;27.30;;;5.90;;
33696;SDS011;20031;43.416;23.232;2022-10-26T02:40:26;21.13;;;5.82;;
33696;SDS011;20031;43.416;23.232;2022-10-26T02:42:53;23.25;;;5.70;;
33696;SDS011;20031;43.416;23.232;2022-10-26T02:45:23;18.67;;;6.13;;
33696;SDS011;20031;43.416;23.232;2022-10-26T02:47:52;18.60;;;4.72;;
33696;SDS011;20031;43.416;23.232;2022-10-26T02:50:19;17.27;;;5.15;;
33696;SDS011;20031;43.416;23.232;2022-10-26T02:52:54;14.63;;;5.95;;
33696;SDS011;20031;43.416;23.232;2022-10-26T02:55:29;18.45;;;4.85;;
33696;SDS011;20031;43.416;23.232;2022-10-26T02:58:04;28.33;;;5.40;;
33696;SDS011;20031;43.416;23.232;2022-10-26T03:00:35;15.90;;;5.03;;
33696;SDS011;20031;43.416;23.232;2022-10-26T03:03:00;17.98;;;5.00;;
33696;SDS011;20031;43.416;23.232;2022-10-26T03:05:28;18.85;;;5.10;;
33696;SDS011;20031;43.416;23.232;2022-10-26T03:08:00;19.17;;;5.32;;
33696;SDS011;20031;43.416;23.232;2022-10-26T03:10:26;23.48;;;5.30;;
33696;SDS011;20031;43.416;23.232;2022-10-26T03:12:52;22.80;;;5.10;;
33696;SDS011;20031;43.416;23.232;2022-10-26T03:15:17;17.60;;;5.10;;
33696;SDS011;20031;43.416;23.232;2022-10-26T03:17:43;26.20;;;5.50;;
33696;SDS011;20031;43.416;23.232;2022-10-26T03:20:08;19.98;;;5.07;;
33696;SDS011;20031;43.416;23.232;2022-10-26T03:22:35;15.75;;;5.00;;
33696;SDS011;20031;43.416;23.232;2022-10-26T03:25:00;16.65;;;5.10;;
33696;SDS011;20031;43.416;23.232;2022-10-26T03:27:26;18.38;;;5.32;;
33696;SDS011;20031;43.416;23.232;2022-10-26T03:29:51;24.40;;;5.82;;
33696;SDS011;20031;43.416;23.232;2022-10-26T03:32:17;13.52;;;4.93;;
33696;SDS011;20031;43.416;23.232;2022-10-26T03:34:43;16.20;;;5.60;;
33696;SDS011;20031;43.416;23.232;2022-10-26T03:37:08;17.38;;;5.18;;
33696;SDS011;20031;43.416;23.232;2022-10-26T03:39:34;23.55;;;5.13;;
33696;SDS011;20031;43.416;23.232;2022-10-26T03:41:59;21.00;;;5.68;;
33696;SDS011;20031;43.416;23.232;2022-10-26T03:44:25;26.05;;;8.40;;
33696;SDS011;20031;43.416;23.232;2022-10-26T03:46:50;43.38;;;13.75;;
33696;SDS011;20031;43.416;23.232;2022-10-26T03:49:15;31.90;;;9.07;;
33696;SDS011;20031;43.416;23.232;2022-10-26T03:51:41;23.33;;;5.13;;
33696;SDS011;20031;43.416;23.232;2022-10-26T03:54:07;20.58;;;5.40;;
33696;SDS011;20031;43.416;23.232;2022-10-26T03:56:32;20.98;;;4.97;;
33696;SDS011;20031;43.416;23.232;2022-10-26T03:58:58;12.18;;;3.88;;
33696;SDS011;20031;43.416;23.232;2022-10-26T04:01:23;21.02;;;4.78;;
33696;SDS011;20031;43.416;23.232;2022-10-26T04:03:49;21.45;;;4.78;;
33696;SDS011;20031;43.416;23.232;2022-10-26T04:06:14;26.20;;;5.25;;
33696;SDS011;20031;43.416;23.232;2022-10-26T04:08:39;23.20;;;5.13;;
33696;SDS011;20031;43.416;23.232;2022-10-26T04:11:05;20.02;;;5.20;;
33696;SDS011;20031;43.416;23.232;2022-10-26T04:13:30;31.52;;;5.45;;
33696;SDS011;20031;43.416;23.232;2022-10-26T04:15:56;25.63;;;5.63;;
33696;SDS011;20031;43.416;23.232;2022-10-26T04:18:22;31.30;;;6.13;;
33696;SDS011;20031;43.416;23.232;2022-10-26T04:20:47;24.50;;;5.28;;
33696;SDS011;20031;43.416;23.232;2022-10-26T04:23:13;19.58;;;4.78;;
33696;SDS011;20031;43.416;23.232;2022-10-26T04:25:40;12.25;;;4.35;;
33696;SDS011;20031;43.416;23.232;2022-10-26T04:28:06;20.63;;;4.57;;
33696;SDS011;20031;43.416;23.232;2022-10-26T04:30:33;21.17;;;4.20;;
33696;SDS011;20031;43.416;23.232;2022-10-26T04:32:59;25.35;;;5.85;;
33696;SDS011;20031;43.416;23.232;2022-10-26T04:35:24;18.00;;;5.68;;
33696;SDS011;20031;43.416;23.232;2022-10-26T04:37:50;14.57;;;5.65;;
33696;SDS011;20031;43.416;23.232;2022-10-26T04:40:20;24.40;;;7.07;;
33696;SDS011;20031;43.416;23.232;2022-10-26T04:42:46;28.15;;;7.63;;
33696;SDS011;20031;43.416;23.232;2022-10-26T04:45:12;28.08;;;8.13;;
33696;SDS011;20031;43.416;23.232;2022-10-26T04:47:40;22.92;;;6.90;;
33696;SDS011;20031;43.416;23.232;2022-10-26T04:50:07;20.38;;;6.30;;
33696;SDS011;20031;43.416;23.232;2022-10-26T04:52:33;38.55;;;10.30;;
33696;SDS011;20031;43.416;23.232;2022-10-26T04:55:00;28.35;;;7.13;;
33696;SDS011;20031;43.416;23.232;2022-10-26T04:57:29;26.42;;;6.88;;
33696;SDS011;20031;43.416;23.232;2022-10-26T04:59:55;25.30;;;6.13;;
33696;SDS011;20031;43.416;23.232;2022-10-26T05:02:21;29.98;;;6.88;;
33696;SDS011;20031;43.416;23.232;2022-10-26T05:04:46;31.00;;;6.72;;
33696;SDS011;20031;43.416;23.232;2022-10-26T05:07:12;33.88;;;5.20;;
33696;SDS011;20031;43.416;23.232;2022-10-26T05:09:37;15.88;;;4.93;;
33696;SDS011;20031;43.416;23.232;2022-10-26T05:12:03;23.33;;;5.57;;
33696;SDS011;20031;43.416;23.232;2022-10-26T05:14:29;21.73;;;5.45;;
33696;SDS011;20031;43.416;23.232;2022-10-26T05:16:54;30.92;;;6.60;;
33696;SDS011;20031;43.416;23.232;2022-10-26T05:19:20;30.73;;;6.18;;
33696;SDS011;20031;43.416;23.232;2022-10-26T05:21:45;42.00;;;7.47;;
33696;SDS011;20031;43.416;23.232;2022-10-26T05:24:11;24.25;;;6.45;;
33696;SDS011;20031;43.416;23.232;2022-10-26T05:26:36;37.38;;;7.50;;
33696;SDS011;20031;43.416;23.232;2022-10-26T05:29:02;29.13;;;6.85;;
33696;SDS011;20031;43.416;23.232;2022-10-26T05:31:27;24.70;;;6.13;;
33696;SDS011;20031;43.416;23.232;2022-10-26T05:33:53;22.05;;;6.97;;
33696;SDS011;20031;43.416;23.232;2022-10-26T05:36:18;33.80;;;7.80;;
33696;SDS011;20031;43.416;23.232;2022-10-26T05:38:44;30.77;;;5.85;;
33696;SDS011;20031;43.416;23.232;2022-10-26T05:41:10;28.95;;;5.03;;
33696;SDS011;20031;43.416;23.232;2022-10-26T05:43:35;49.35;;;9.20;;
33696;SDS011;20031;43.416;23.232;2022-10-26T05:46:01;55.05;;;10.85;;
33696;SDS011;20031;43.416;23.232;2022-10-26T05:48:26;60.60;;;10.93;;
33696;SDS011;20031;43.416;23.232;2022-10-26T05:50:51;63.72;;;11.55;;
33696;SDS011;20031;43.416;23.232;2022-10-26T05:53:17;65.82;;;10.82;;
33696;SDS011;20031;43.416;23.232;2022-10-26T05:55:43;51.63;;;10.35;;
33696;SDS011;20031;43.416;23.232;2022-10-26T05:58:12;43.20;;;10.77;;
33696;SDS011;20031;43.416;23.232;2022-10-26T06:01:27;49.38;;;10.90;;
33696;SDS011;20031;43.416;23.232;2022-10-26T06:05:54;47.97;;;10.50;;
33696;SDS011;20031;43.416;23.232;2022-10-26T06:08:22;59.95;;;10.38;;
33696;SDS011;20031;43.416;23.232;2022-10-26T06:10:49;62.85;;;10.55;;
33696;SDS011;20031;43.416;23.232;2022-10-26T06:13:15;45.40;;;9.60;;
33696;SDS011;20031;43.416;23.232;2022-10-26T06:15:56;53.15;;;10.13;;
33696;SDS011;20031;43.416;23.232;2022-10-26T06:25:15;52.25;;;12.07;;
33696;SDS011;20031;43.416;23.232;2022-10-26T06:30:58;69.95;;;12.30;;
33696;SDS011;20031;43.416;23.232;2022-10-26T06:33:24;69.10;;;12.13;;
33696;SDS011;20031;43.416;23.232;2022-10-26T06:38:43;16.85;;;4.30;;
33696;SDS011;20031;43.416;23.232;2022-10-26T06:41:10;21.08;;;5.07;;
33696;SDS011;20031;43.416;23.232;2022-10-26T06:43:39;25.92;;;4.68;;
33696;SDS011;20031;43.416;23.232;2022-10-26T06:48:46;16.33;;;5.10;;
33696;SDS011;20031;43.416;23.232;2022-10-26T06:51:18;18.65;;;5.20;;
33696;SDS011;20031;43.416;23.232;2022-10-26T06:54:03;19.48;;;4.90;;
33696;SDS011;20031;43.416;23.232;2022-10-26T06:56:35;38.13;;;6.20;;
33696;SDS011;20031;43.416;23.232;2022-10-26T07:01:55;29.58;;;5.10;;
33696;SDS011;20031;43.416;23.232;2022-10-26T07:04:21;24.35;;;5.25;;
33696;SDS011;20031;43.416;23.232;2022-10-26T07:06:46;22.30;;;4.88;;
33696;SDS011;20031;43.416;23.232;2022-10-26T07:09:12;31.65;;;4.82;;
33696;SDS011;20031;43.416;23.232;2022-10-26T07:11:37;16.00;;;4.47;;
33696;SDS011;20031;43.416;23.232;2022-10-26T07:14:02;20.08;;;4.32;;
33696;SDS011;20031;43.416;23.232;2022-10-26T07:16:28;21.33;;;5.00;;
33696;SDS011;20031;43.416;23.232;2022-10-26T07:18:53;19.02;;;4.30;;
33696;SDS011;20031;43.416;23.232;2022-10-26T07:21:19;15.35;;;5.13;;
33696;SDS011;20031;43.416;23.232;2022-10-26T07:23:44;24.70;;;4.88;;
33696;SDS011;20031;43.416;23.232;2022-10-26T07:26:09;18.83;;;4.45;;
33696;SDS011;20031;43.416;23.232;2022-10-26T07:28:35;27.13;;;5.18;;
33696;SDS011;20031;43.416;23.232;2022-10-26T07:31:00;27.25;;;4.55;;
33696;SDS011;20031;43.416;23.232;2022-10-26T07:33:26;19.65;;;4.80;;
33696;SDS011;20031;43.416;23.232;2022-10-26T07:35:51;29.23;;;5.53;;
33696;SDS011;20031;43.416;23.232;2022-10-26T07:38:18;22.92;;;4.93;;
33696;SDS011;20031;43.416;23.232;2022-10-26T07:40:43;22.73;;;5.30;;
33696;SDS011;20031;43.416;23.232;2022-10-26T07:43:09;28.13;;;5.03;;
33696;SDS011;20031;43.416;23.232;2022-10-26T07:45:34;17.35;;;4.20;;
33696;SDS011;20031;43.416;23.232;2022-10-26T07:48:00;39.00;;;4.97;;
33696;SDS011;20031;43.416;23.232;2022-10-26T07:50:26;20.30;;;4.78;;
33696;SDS011;20031;43.416;23.232;2022-10-26T07:52:52;30.35;;;4.68;;
33696;SDS011;20031;43.416;23.232;2022-10-26T07:55:18;30.52;;;5.78;;
33696;SDS011;20031;43.416;23.232;2022-10-26T07:57:44;30.05;;;6.07;;
33696;SDS011;20031;43.416;23.232;2022-10-26T08:00:09;35.72;;;8.18;;
33696;SDS011;20031;43.416;23.232;2022-10-26T08:02:35;50.72;;;12.93;;
33696;SDS011;20031;43.416;23.232;2022-10-26T08:05:01;96.63;;;18.35;;
33696;SDS011;20031;43.416;23.232;2022-10-26T08:07:27;93.13;;;16.38;;
33696;SDS011;20031;43.416;23.232;2022-10-26T08:09:53;61.50;;;15.20;;
33696;SDS011;20031;43.416;23.232;2022-10-26T08:12:18;142.20;;;7.90;;
33696;SDS011;20031;43.416;23.232;2022-10-26T08:14:44;27.08;;;3.58;;
33696;SDS011;20031;43.416;23.232;2022-10-26T08:17:10;13.77;;;5.68;;
33696;SDS011;20031;43.416;23.232;2022-10-26T08:19:35;23.60;;;4.75;;
33696;SDS011;20031;43.416;23.232;2022-10-26T08:22:01;20.13;;;6.32;;
33696;SDS011;20031;43.416;23.232;2022-10-26T08:24:26;290.45;;;12.43;;
33696;SDS011;20031;43.416;23.232;2022-10-26T08:26:51;26.10;;;5.97;;
33696;SDS011;20031;43.416;23.232;2022-10-26T08:29:17;20.77;;;5.40;;
33696;SDS011;20031;43.416;23.232;2022-10-26T08:31:42;10.75;;;3.20;;
33696;SDS011;20031;43.416;23.232;2022-10-26T08:34:08;8.98;;;2.72;;
33696;SDS011;20031;43.416;23.232;2022-10-26T08:36:34;22.60;;;3.45;;
33696;SDS011;20031;43.416;23.232;2022-10-26T08:38:59;18.50;;;3.28;;
33696;SDS011;20031;43.416;23.232;2022-10-26T08:42:09;12.32;;;2.20;;
33696;SDS011;20031;43.416;23.232;2022-10-26T08:47:01;42.28;;;3.67;;
33696;SDS011;20031;43.416;23.232;2022-10-26T08:49:31;20.63;;;3.78;;
33696;SDS011;20031;43.416;23.232;2022-10-26T08:52:22;20.02;;;5.50;;
33696;SDS011;20031;43.416;23.232;2022-10-26T08:54:54;13.98;;;3.03;;
33696;SDS011;20031;43.416;23.232;2022-10-26T08:57:25;9.02;;;2.60;;
33696;SDS011;20031;43.416;23.232;2022-10-26T09:00:11;25.33;;;6.40;;
33696;SDS011;20031;43.416;23.232;2022-10-26T09:02:39;16.63;;;4.03;;
33696;SDS011;20031;43.416;23.232;2022-10-26T09:05:11;21.83;;;6.38;;
33696;SDS011;20031;43.416;23.232;2022-10-26T09:07:57;22.75;;;7.55;;
33696;SDS011;20031;43.416;23.232;2022-10-26T09:16:45;24.58;;;4.28;;
33696;SDS011;20031;43.416;23.232;2022-10-26T09:20:11;13.90;;;3.47;;
33696;SDS011;20031;43.416;23.232;2022-10-26T09:22:52;29.90;;;4.47;;
33696;SDS011;20031;43.416;23.232;2022-10-26T09:25:39;13.32;;;3.10;;
33696;SDS011;20031;43.416;23.232;2022-10-26T09:28:10;6.38;;;2.15;;
33696;SDS011;20031;43.416;23.232;2022-10-26T09:30:40;9.40;;;2.10;;
33696;SDS011;20031;43.416;23.232;2022-10-26T09:33:16;34.78;;;4.20;;
33696;SDS011;20031;43.416;23.232;2022-10-26T09:46:47;8.32;;;1.30;;
33696;SDS011;20031;43.416;23.232;2022-10-26T09:49:19;3.47;;;1.58;;
33696;SDS011;20031;43.416;23.232;2022-10-26T09:51:54;13.52;;;1.50;;
33696;SDS011;20031;43.416;23.232;2022-10-26T09:54:19;4.78;;;1.20;;
33696;SDS011;20031;43.416;23.232;2022-10-26T09:56:55;12.45;;;1.35;;
33696;SDS011;20031;43.416;23.232;2022-10-26T09:59:24;6.00;;;1.13;;
33696;SDS011;20031;43.416;23.232;2022-10-26T10:01:50;5.93;;;1.00;;
33696;SDS011;20031;43.416;23.232;2022-10-26T10:04:17;7.20;;;1.15;;
33696;SDS011;20031;43.416;23.232;2022-10-26T10:06:45;4.70;;;1.20;;
33696;SDS011;20031;43.416;23.232;2022-10-26T10:09:13;3.90;;;1.40;;
33696;SDS011;20031;43.416;23.232;2022-10-26T10:12:01;8.00;;;1.05;;
33696;SDS011;20031;43.416;23.232;2022-10-26T10:14:29;3.25;;;1.27;;
33696;SDS011;20031;43.416;23.232;2022-10-26T10:16:57;5.40;;;1.08;;
33696;SDS011;20031;43.416;23.232;2022-10-26T10:21:57;6.28;;;1.10;;
33696;SDS011;20031;43.416;23.232;2022-10-26T10:24:30;4.28;;;1.20;;
33696;SDS011;20031;43.416;23.232;2022-10-26T10:27:02;10.88;;;1.63;;
33696;SDS011;20031;43.416;23.232;2022-10-26T10:29:28;4.20;;;1.05;;
33696;SDS011;20031;43.416;23.232;2022-10-26T10:31:59;2.58;;;1.00;;
33696;SDS011;20031;43.416;23.232;2022-10-26T10:34:28;4.80;;;1.10;;
33696;SDS011;20031;43.416;23.232;2022-10-26T10:36:54;6.63;;;1.20;;
33696;SDS011;20031;43.416;23.232;2022-10-26T10:39:27;4.30;;;1.20;;
33696;SDS011;20031;43.416;23.232;2022-10-26T10:42:15;2.85;;;1.08;;
33696;SDS011;20031;43.416;23.232;2022-10-26T10:44:44;6.10;;;1.00;;
33696;SDS011;20031;43.416;23.232;2022-10-26T10:47:19;2.50;;;1.17;;
33696;SDS011;20031;43.416;23.232;2022-10-26T10:49:49;4.00;;;1.20;;
33696;SDS011;20031;43.416;23.232;2022-10-26T10:52:21;11.05;;;1.30;;
33696;SDS011;20031;43.416;23.232;2022-10-26T10:54:49;4.95;;;1.10;;
33696;SDS011;20031;43.416;23.232;2022-10-26T10:57:26;4.22;;;0.90;;
33696;SDS011;20031;43.416;23.232;2022-10-26T11:10:16;4.28;;;1.10;;
33696;SDS011;20031;43.416;23.232;2022-10-26T11:12:46;3.88;;;1.10;;
33696;SDS011;20031;43.416;23.232;2022-10-26T11:15:18;8.35;;;1.50;;
33696;SDS011;20031;43.416;23.232;2022-10-26T11:17:53;10.30;;;1.10;;
33696;SDS011;20031;43.416;23.232;2022-10-26T11:20:28;2.50;;;0.85;;
33696;SDS011;20031;43.416;23.232;2022-10-26T11:22:57;7.28;;;1.00;;
33696;SDS011;20031;43.416;23.232;2022-10-26T11:25:38;4.03;;;0.90;;
33696;SDS011;20031;43.416;23.232;2022-10-26T11:28:14;8.13;;;0.80;;
33696;SDS011;20031;43.416;23.232;2022-10-26T11:30:52;9.57;;;1.02;;
33696;SDS011;20031;43.416;23.232;2022-10-26T11:33:25;6.00;;;0.93;;
33696;SDS011;20031;43.416;23.232;2022-10-26T11:35:57;2.22;;;0.80;;
33696;SDS011;20031;43.416;23.232;2022-10-26T11:38:31;8.75;;;1.08;;
33696;SDS011;20031;43.416;23.232;2022-10-26T11:41:04;1.88;;;0.80;;
33696;SDS011;20031;43.416;23.232;2022-10-26T11:43:46;5.75;;;0.93;;
33696;SDS011;20031;43.416;23.232;2022-10-26T11:46:17;4.80;;;1.20;;
33696;SDS011;20031;43.416;23.232;2022-10-26T11:48:54;2.30;;;0.90;;
33696;SDS011;20031;43.416;23.232;2022-10-26T11:53:53;10.35;;;1.08;;
33696;SDS011;20031;43.416;23.232;2022-10-26T11:56:35;9.52;;;1.35;;
33696;SDS011;20031;43.416;23.232;2022-10-26T11:59:04;6.95;;;0.90;;
33696;SDS011;20031;43.416;23.232;2022-10-26T12:01:31;3.30;;;0.98;;
33696;SDS011;20031;43.416;23.232;2022-10-26T12:03:57;2.55;;;0.70;;
33696;SDS011;20031;43.416;23.232;2022-10-26T12:06:26;1.35;;;0.70;;
33696;SDS011;20031;43.416;23.232;2022-10-26T12:09:05;7.38;;;0.93;;
33696;SDS011;20031;43.416;23.232;2022-10-26T12:11:39;5.15;;;1.17;;
33696;SDS011;20031;43.416;23.232;2022-10-26T12:14:14;1.98;;;0.85;;
33696;SDS011;20031;43.416;23.232;2022-10-26T12:22:16;3.90;;;1.02;;
33696;SDS011;20031;43.416;23.232;2022-10-26T12:24:43;5.15;;;1.05;;
33696;SDS011;20031;43.416;23.232;2022-10-26T12:38:00;6.82;;;1.20;;
33696;SDS011;20031;43.416;23.232;2022-10-26T12:45:38;6.78;;;1.25;;
33696;SDS011;20031;43.416;23.232;2022-10-26T12:48:10;12.98;;;1.10;;
33696;SDS011;20031;43.416;23.232;2022-10-26T12:53:47;7.18;;;1.00;;
33696;SDS011;20031;43.416;23.232;2022-10-26T12:56:45;2.63;;;0.93;;
33696;SDS011;20031;43.416;23.232;2022-10-26T12:59:24;3.03;;;0.95;;
33696;SDS011;20031;43.416;23.232;2022-10-26T13:02:02;3.78;;;1.10;;
33696;SDS011;20031;43.416;23.232;2022-10-26T13:04:40;2.75;;;0.80;;
33696;SDS011;20031;43.416;23.232;2022-10-26T13:07:42;2.80;;;1.45;;
33696;SDS011;20031;43.416;23.232;2022-10-26T13:12:50;7.43;;;2.78;;
33696;SDS011;20031;43.416;23.232;2022-10-26T13:15:21;6.22;;;1.70;;
33696;SDS011;20031;43.416;23.232;2022-10-26T13:21:02;5.30;;;1.48;;
33696;SDS011;20031;43.416;23.232;2022-10-26T13:26:21;7.07;;;1.55;;
33696;SDS011;20031;43.416;23.232;2022-10-26T13:33:53;10.30;;;1.52;;
33696;SDS011;20031;43.416;23.232;2022-10-26T13:36:28;4.18;;;1.25;;
33696;SDS011;20031;43.416;23.232;2022-10-26T13:39:22;15.65;;;1.65;;
33696;SDS011;20031;43.416;23.232;2022-10-26T13:41:52;4.07;;;1.40;;
33696;SDS011;20031;43.416;23.232;2022-10-26T13:44:24;5.80;;;1.58;;
33696;SDS011;20031;43.416;23.232;2022-10-26T13:46:55;10.05;;;1.73;;
33696;SDS011;20031;43.416;23.232;2022-10-26T13:52:42;12.77;;;1.50;;
33696;SDS011;20031;43.416;23.232;2022-10-26T13:55:31;20.35;;;1.80;;
33696;SDS011;20031;43.416;23.232;2022-10-26T14:00:33;10.95;;;1.90;;
33696;SDS011;20031;43.416;23.232;2022-10-26T14:02:58;9.13;;;1.75;;
33696;SDS011;20031;43.416;23.232;2022-10-26T14:05:23;10.35;;;2.17;;
33696;SDS011;20031;43.416;23.232;2022-10-26T14:07:51;6.43;;;1.52;;
33696;SDS011;20031;43.416;23.232;2022-10-26T14:10:23;13.10;;;2.10;;
33696;SDS011;20031;43.416;23.232;2022-10-26T14:12:53;11.63;;;2.00;;
33696;SDS011;20031;43.416;23.232;2022-10-26T14:15:23;16.92;;;1.85;;
33696;SDS011;20031;43.416;23.232;2022-10-26T14:17:52;13.02;;;2.10;;
33696;SDS011;20031;43.416;23.232;2022-10-26T14:20:20;11.23;;;1.75;;
33696;SDS011;20031;43.416;23.232;2022-10-26T14:22:48;3.90;;;1.77;;
33696;SDS011;20031;43.416;23.232;2022-10-26T14:25:16;9.75;;;2.28;;
33696;SDS011;20031;43.416;23.232;2022-10-26T14:27:43;9.73;;;3.05;;
33696;SDS011;20031;43.416;23.232;2022-10-26T14:30:28;10.07;;;2.60;;
33696;SDS011;20031;43.416;23.232;2022-10-26T14:32:56;6.25;;;2.65;;
33696;SDS011;20031;43.416;23.232;2022-10-26T14:35:27;42.97;;;3.05;;
33696;SDS011;20031;43.416;23.232;2022-10-26T14:37:58;58.80;;;4.05;;
33696;SDS011;20031;43.416;23.232;2022-10-26T14:40:27;33.03;;;3.22;;
33696;SDS011;20031;43.416;23.232;2022-10-26T14:42:57;10.23;;;2.10;;
33696;SDS011;20031;43.416;23.232;2022-10-26T14:45:28;10.13;;;2.15;;
33696;SDS011;20031;43.416;23.232;2022-10-26T14:47:57;16.10;;;3.15;;
33696;SDS011;20031;43.416;23.232;2022-10-26T14:50:24;14.95;;;2.90;;
33696;SDS011;20031;43.416;23.232;2022-10-26T14:53:03;19.42;;;4.40;;
33696;SDS011;20031;43.416;23.232;2022-10-26T14:55:45;28.73;;;5.03;;
33696;SDS011;20031;43.416;23.232;2022-10-26T14:58:14;22.95;;;4.70;;
33696;SDS011;20031;43.416;23.232;2022-10-26T15:00:46;17.98;;;4.50;;
33696;SDS011;20031;43.416;23.232;2022-10-26T15:03:15;14.63;;;4.00;;
33696;SDS011;20031;43.416;23.232;2022-10-26T15:05:42;16.25;;;3.28;;
33696;SDS011;20031;43.416;23.232;2022-10-26T15:11:11;12.07;;;3.70;;
33696;SDS011;20031;43.416;23.232;2022-10-26T15:13:38;6.88;;;3.30;;
33696;SDS011;20031;43.416;23.232;2022-10-26T15:16:15;8.00;;;2.70;;
33696;SDS011;20031;43.416;23.232;2022-10-26T15:18:43;6.00;;;3.08;;
33696;SDS011;20031;43.416;23.232;2022-10-26T15:21:30;11.18;;;3.05;;
33696;SDS011;20031;43.416;23.232;2022-10-26T15:23:58;12.65;;;3.00;;
33696;SDS011;20031;43.416;23.232;2022-10-26T15:26:25;8.10;;;2.50;;
33696;SDS011;20031;43.416;23.232;2022-10-26T15:28:51;11.05;;;2.92;;
33696;SDS011;20031;43.416;23.232;2022-10-26T15:36:15;18.70;;;4.35;;
33696;SDS011;20031;43.416;23.232;2022-10-26T15:38:54;20.50;;;4.65;;
33696;SDS011;20031;43.416;23.232;2022-10-26T15:41:21;22.52;;;5.22;;
33696;SDS011;20031;43.416;23.232;2022-10-26T15:43:50;21.48;;;5.70;;
33696;SDS011;20031;43.416;23.232;2022-10-26T15:46:17;10.20;;;4.50;;
33696;SDS011;20031;43.416;23.232;2022-10-26T15:48:44;21.08;;;4.35;;
33696;SDS011;20031;43.416;23.232;2022-10-26T15:51:17;16.17;;;3.28;;
33696;SDS011;20031;43.416;23.232;2022-10-26T15:53:42;12.95;;;3.75;;
33696;SDS011;20031;43.416;23.232;2022-10-26T15:56:11;24.30;;;3.67;;
33696;SDS011;20031;43.416;23.232;2022-10-26T15:58:39;13.80;;;3.50;;
33696;SDS011;20031;43.416;23.232;2022-10-26T16:01:05;17.40;;;3.75;;
33696;SDS011;20031;43.416;23.232;2022-10-26T16:03:30;31.75;;;5.22;;
33696;SDS011;20031;43.416;23.232;2022-10-26T16:05:57;21.83;;;4.43;;
33696;SDS011;20031;43.416;23.232;2022-10-26T16:08:28;19.40;;;3.72;;
33696;SDS011;20031;43.416;23.232;2022-10-26T16:10:55;23.02;;;4.50;;
33696;SDS011;20031;43.416;23.232;2022-10-26T16:13:21;59.20;;;8.77;;
33696;SDS011;20031;43.416;23.232;2022-10-26T16:15:46;62.42;;;8.25;;
33696;SDS011;20031;43.416;23.232;2022-10-26T16:18:12;52.65;;;8.10;;
33696;SDS011;20031;43.416;23.232;2022-10-26T16:20:38;53.35;;;9.13;;
33696;SDS011;20031;43.416;23.232;2022-10-26T16:23:04;31.90;;;7.40;;
33696;SDS011;20031;43.416;23.232;2022-10-26T16:25:38;48.40;;;8.43;;
33696;SDS011;20031;43.416;23.232;2022-10-26T16:28:08;46.10;;;7.85;;
33696;SDS011;20031;43.416;23.232;2022-10-26T16:30:34;49.58;;;8.02;;
33696;SDS011;20031;43.416;23.232;2022-10-26T16:33:00;51.47;;;9.43;;
33696;SDS011;20031;43.416;23.232;2022-10-26T16:35:26;40.38;;;9.32;;
33696;SDS011;20031;43.416;23.232;2022-10-26T16:37:52;52.15;;;10.15;;
33696;SDS011;20031;43.416;23.232;2022-10-26T16:40:17;48.25;;;11.70;;
33696;SDS011;20031;43.416;23.232;2022-10-26T16:42:43;48.08;;;13.38;;
33696;SDS011;20031;43.416;23.232;2022-10-26T16:45:11;61.53;;;20.38;;
33696;SDS011;20031;43.416;23.232;2022-10-26T16:47:38;55.05;;;23.05;;
33696;SDS011;20031;43.416;23.232;2022-10-26T16:50:07;67.53;;;27.98;;